sensor_id;sensor_type;location;lat;lon;timestamp;P1;durP1;ratioP1;P2;durP2;ratioP2
1507;SDS011;745;48.586;10.032;2023-02-28T00:00:07;5.57;;;3.83;;
1507;SDS011;745;48.586;10.032;2023-02-28T00:04:41;3.87;;;3.57;;
1507;SDS011;745;48.586;10.032;2023-02-28T00:09:11;4.90;;;3.57;;
1507;SDS011;745;48.586;10.032;2023-02-28T00:13:43;6.47;;;4.47;;
1507;SDS011;745;48.586;10.032;2023-02-28T00:18:17;6.03;;;3.70;;
1507;SDS011;745;48.586;10.032;2023-02-28T00:22:48;4.00;;;3.60;;
1507;SDS011;745;48.586;10.032;2023-02-28T00:27:20;4.37;;;3.50;;
1507;SDS011;745;48.586;10.032;2023-02-28T00:31:51;4.53;;;4.10;;
1507;SDS011;745;48.586;10.032;2023-02-28T00:36:21;4.80;;;3.77;;
1507;SDS011;745;48.586;10.032;2023-02-28T00:40:51;4.80;;;3.80;;
1507;SDS011;745;48.586;10.032;2023-02-28T00:45:22;7.63;;;3.80;;
1507;SDS011;745;48.586;10.032;2023-02-28T00:49:52;4.93;;;3.90;;
1507;SDS011;745;48.586;10.032;2023-02-28T00:54:23;5.20;;;4.50;;
1507;SDS011;745;48.586;10.032;2023-02-28T00:58:53;4.27;;;3.87;;
1507;SDS011;745;48.586;10.032;2023-02-28T01:03:24;6.67;;;4.70;;
1507;SDS011;745;48.586;10.032;2023-02-28T01:07:54;4.40;;;4.00;;
1507;SDS011;745;48.586;10.032;2023-02-28T01:12:24;4.60;;;4.20;;
1507;SDS011;745;48.586;10.032;2023-02-28T01:16:55;6.07;;;4.67;;
1507;SDS011;745;48.586;10.032;2023-02-28T01:21:25;4.23;;;3.33;;
1507;SDS011;745;48.586;10.032;2023-02-28T01:25:55;4.97;;;3.53;;
1507;SDS011;745;48.586;10.032;2023-02-28T01:30:26;6.20;;;4.30;;
1507;SDS011;745;48.586;10.032;2023-02-28T01:34:56;5.13;;;4.40;;
1507;SDS011;745;48.586;10.032;2023-02-28T01:39:27;4.70;;;4.10;;
1507;SDS011;745;48.586;10.032;2023-02-28T01:44:07;5.77;;;4.57;;
1507;SDS011;745;48.586;10.032;2023-02-28T01:49:15;5.63;;;4.67;;
1507;SDS011;745;48.586;10.032;2023-02-28T01:53:48;5.97;;;4.00;;
1507;SDS011;745;48.586;10.032;2023-02-28T01:58:20;5.10;;;4.60;;
1507;SDS011;745;48.586;10.032;2023-02-28T02:02:52;6.00;;;4.87;;
1507;SDS011;745;48.586;10.032;2023-02-28T02:07:24;5.33;;;4.83;;
1507;SDS011;745;48.586;10.032;2023-02-28T02:11:56;7.20;;;4.90;;
1507;SDS011;745;48.586;10.032;2023-02-28T02:25:56;5.80;;;4.30;;
1507;SDS011;745;48.586;10.032;2023-02-28T02:30:49;7.20;;;5.17;;
1507;SDS011;745;48.586;10.032;2023-02-28T02:35:30;6.53;;;5.07;;
1507;SDS011;745;48.586;10.032;2023-02-28T02:44:46;6.73;;;5.17;;
1507;SDS011;745;48.586;10.032;2023-02-28T02:49:42;6.47;;;4.53;;
1507;SDS011;745;48.586;10.032;2023-02-28T02:54:31;6.60;;;4.90;;
1507;SDS011;745;48.586;10.032;2023-02-28T02:59:06;7.33;;;5.80;;
1507;SDS011;745;48.586;10.032;2023-02-28T03:03:39;6.50;;;5.00;;
1507;SDS011;745;48.586;10.032;2023-02-28T03:08:09;6.77;;;4.80;;
1507;SDS011;745;48.586;10.032;2023-02-28T03:12:41;5.93;;;4.80;;
1507;SDS011;745;48.586;10.032;2023-02-28T03:22:05;6.50;;;4.93;;
1507;SDS011;745;48.586;10.032;2023-02-28T03:26:45;7.00;;;5.20;;
1507;SDS011;745;48.586;10.032;2023-02-28T03:31:27;6.80;;;5.67;;
1507;SDS011;745;48.586;10.032;2023-02-28T03:36:02;6.60;;;5.27;;
1507;SDS011;745;48.586;10.032;2023-02-28T03:40:35;6.37;;;5.40;;
1507;SDS011;745;48.586;10.032;2023-02-28T03:45:12;9.30;;;5.27;;
1507;SDS011;745;48.586;10.032;2023-02-28T03:49:59;6.20;;;5.23;;
1507;SDS011;745;48.586;10.032;2023-02-28T03:54:35;8.90;;;6.00;;
1507;SDS011;745;48.586;10.032;2023-02-28T03:59:17;7.10;;;5.70;;
1507;SDS011;745;48.586;10.032;2023-02-28T04:03:49;8.47;;;6.43;;
1507;SDS011;745;48.586;10.032;2023-02-28T04:08:19;6.40;;;5.27;;
1507;SDS011;745;48.586;10.032;2023-02-28T04:12:50;9.90;;;6.53;;
1507;SDS011;745;48.586;10.032;2023-02-28T04:17:20;7.53;;;6.63;;
1507;SDS011;745;48.586;10.032;2023-02-28T04:21:51;8.10;;;5.87;;
1507;SDS011;745;48.586;10.032;2023-02-28T04:26:22;7.37;;;6.30;;
1507;SDS011;745;48.586;10.032;2023-02-28T04:30:56;9.67;;;6.27;;
1507;SDS011;745;48.586;10.032;2023-02-28T04:35:27;7.67;;;6.23;;
1507;SDS011;745;48.586;10.032;2023-02-28T04:39:58;11.63;;;6.90;;
1507;SDS011;745;48.586;10.032;2023-02-28T04:44:28;8.60;;;6.60;;
1507;SDS011;745;48.586;10.032;2023-02-28T04:48:58;7.20;;;5.53;;
1507;SDS011;745;48.586;10.032;2023-02-28T04:53:29;8.53;;;7.10;;
1507;SDS011;745;48.586;10.032;2023-02-28T04:57:59;9.53;;;7.30;;
1507;SDS011;745;48.586;10.032;2023-02-28T05:02:30;8.70;;;7.00;;
1507;SDS011;745;48.586;10.032;2023-02-28T05:07:00;10.60;;;7.53;;
1507;SDS011;745;48.586;10.032;2023-02-28T05:11:32;10.97;;;8.10;;
1507;SDS011;745;48.586;10.032;2023-02-28T05:16:06;9.50;;;7.63;;
1507;SDS011;745;48.586;10.032;2023-02-28T05:20:36;10.90;;;7.30;;
1507;SDS011;745;48.586;10.032;2023-02-28T05:25:09;11.67;;;7.80;;
1507;SDS011;745;48.586;10.032;2023-02-28T05:29:41;11.17;;;6.93;;
1507;SDS011;745;48.586;10.032;2023-02-28T05:34:13;10.60;;;8.10;;
1507;SDS011;745;48.586;10.032;2023-02-28T05:38:46;10.60;;;7.40;;
1507;SDS011;745;48.586;10.032;2023-02-28T05:43:18;10.73;;;6.47;;
1507;SDS011;745;48.586;10.032;2023-02-28T05:47:48;11.73;;;7.03;;
1507;SDS011;745;48.586;10.032;2023-02-28T05:52:18;9.50;;;7.20;;
1507;SDS011;745;48.586;10.032;2023-02-28T05:56:49;9.80;;;7.30;;
1507;SDS011;745;48.586;10.032;2023-02-28T06:01:20;9.57;;;7.37;;
1507;SDS011;745;48.586;10.032;2023-02-28T06:05:51;10.97;;;7.37;;
1507;SDS011;745;48.586;10.032;2023-02-28T06:10:21;9.77;;;7.93;;
1507;SDS011;745;48.586;10.032;2023-02-28T06:14:51;12.23;;;8.30;;
1507;SDS011;745;48.586;10.032;2023-02-28T06:19:22;11.60;;;8.00;;
1507;SDS011;745;48.586;10.032;2023-02-28T06:23:56;8.33;;;7.40;;
1507;SDS011;745;48.586;10.032;2023-02-28T06:28:27;13.53;;;8.50;;
1507;SDS011;745;48.586;10.032;2023-02-28T06:32:57;12.13;;;9.73;;
1507;SDS011;745;48.586;10.032;2023-02-28T06:37:28;11.70;;;8.20;;
1507;SDS011;745;48.586;10.032;2023-02-28T06:41:58;11.67;;;8.20;;
1507;SDS011;745;48.586;10.032;2023-02-28T06:46:28;16.80;;;9.70;;
1507;SDS011;745;48.586;10.032;2023-02-28T06:51:03;13.43;;;9.20;;
1507;SDS011;745;48.586;10.032;2023-02-28T06:55:39;14.30;;;8.43;;
1507;SDS011;745;48.586;10.032;2023-02-28T07:00:09;11.30;;;8.47;;
1507;SDS011;745;48.586;10.032;2023-02-28T07:04:40;10.27;;;8.27;;
1507;SDS011;745;48.586;10.032;2023-02-28T07:09:14;12.67;;;8.00;;
1507;SDS011;745;48.586;10.032;2023-02-28T07:13:45;11.63;;;8.23;;
1507;SDS011;745;48.586;10.032;2023-02-28T07:18:17;14.37;;;8.97;;
1507;SDS011;745;48.586;10.032;2023-02-28T07:22:47;16.00;;;9.77;;
1507;SDS011;745;48.586;10.032;2023-02-28T07:27:25;13.03;;;8.53;;
1507;SDS011;745;48.586;10.032;2023-02-28T07:31:55;10.83;;;8.23;;
1507;SDS011;745;48.586;10.032;2023-02-28T07:36:26;13.00;;;9.47;;
1507;SDS011;745;48.586;10.032;2023-02-28T07:40:56;13.03;;;9.07;;
1507;SDS011;745;48.586;10.032;2023-02-28T07:45:27;10.93;;;9.43;;
1507;SDS011;745;48.586;10.032;2023-02-28T07:49:58;12.70;;;8.70;;
1507;SDS011;745;48.586;10.032;2023-02-28T07:54:29;12.70;;;9.50;;
1507;SDS011;745;48.586;10.032;2023-02-28T07:59:00;14.80;;;9.07;;
1507;SDS011;745;48.586;10.032;2023-02-28T08:03:31;15.20;;;9.20;;
1507;SDS011;745;48.586;10.032;2023-02-28T08:08:01;13.30;;;9.63;;
1507;SDS011;745;48.586;10.032;2023-02-28T08:12:32;15.00;;;10.57;;
1507;SDS011;745;48.586;10.032;2023-02-28T08:17:03;12.70;;;9.40;;
1507;SDS011;745;48.586;10.032;2023-02-28T08:21:34;11.90;;;8.80;;
1507;SDS011;745;48.586;10.032;2023-02-28T08:26:04;13.27;;;9.33;;
1507;SDS011;745;48.586;10.032;2023-02-28T08:30:35;10.97;;;9.07;;
1507;SDS011;745;48.586;10.032;2023-02-28T08:35:05;13.30;;;9.33;;
1507;SDS011;745;48.586;10.032;2023-02-28T08:39:36;9.10;;;7.77;;
1507;SDS011;745;48.586;10.032;2023-02-28T08:44:07;13.33;;;9.03;;
1507;SDS011;745;48.586;10.032;2023-02-28T08:48:37;9.80;;;8.40;;
1507;SDS011;745;48.586;10.032;2023-02-28T08:53:07;13.20;;;10.20;;
1507;SDS011;745;48.586;10.032;2023-02-28T08:57:38;12.70;;;9.03;;
1507;SDS011;745;48.586;10.032;2023-02-28T09:02:09;10.50;;;8.43;;
1507;SDS011;745;48.586;10.032;2023-02-28T09:06:42;14.20;;;8.93;;
1507;SDS011;745;48.586;10.032;2023-02-28T09:11:14;14.50;;;9.13;;
1507;SDS011;745;48.586;10.032;2023-02-28T09:15:44;13.20;;;9.90;;
1507;SDS011;745;48.586;10.032;2023-02-28T09:20:15;10.70;;;9.13;;
1507;SDS011;745;48.586;10.032;2023-02-28T09:24:45;14.83;;;9.77;;
1507;SDS011;745;48.586;10.032;2023-02-28T09:29:16;15.00;;;10.43;;
1507;SDS011;745;48.586;10.032;2023-02-28T09:33:48;12.87;;;9.47;;
1507;SDS011;745;48.586;10.032;2023-02-28T09:38:22;16.77;;;10.87;;
1507;SDS011;745;48.586;10.032;2023-02-28T09:42:53;16.90;;;10.67;;
1507;SDS011;745;48.586;10.032;2023-02-28T09:47:27;15.03;;;11.17;;
1507;SDS011;745;48.586;10.032;2023-02-28T09:52:05;17.23;;;12.13;;
1507;SDS011;745;48.586;10.032;2023-02-28T09:56:39;17.20;;;12.47;;
1507;SDS011;745;48.586;10.032;2023-02-28T10:05:55;17.33;;;12.47;;
1507;SDS011;745;48.586;10.032;2023-02-28T10:10:39;16.70;;;11.00;;
1507;SDS011;745;48.586;10.032;2023-02-28T10:15:14;14.97;;;11.97;;
1507;SDS011;745;48.586;10.032;2023-02-28T10:24:39;15.57;;;11.27;;
1507;SDS011;745;48.586;10.032;2023-02-28T10:29:12;14.70;;;10.90;;
1507;SDS011;745;48.586;10.032;2023-02-28T10:33:42;14.47;;;11.30;;
1507;SDS011;745;48.586;10.032;2023-02-28T10:38:17;16.57;;;11.00;;
1507;SDS011;745;48.586;10.032;2023-02-28T10:43:00;14.63;;;11.37;;
1507;SDS011;745;48.586;10.032;2023-02-28T10:47:32;15.43;;;10.93;;
1507;SDS011;745;48.586;10.032;2023-02-28T10:52:04;14.77;;;10.27;;
1507;SDS011;745;48.586;10.032;2023-02-28T10:56:34;13.07;;;10.20;;
1507;SDS011;745;48.586;10.032;2023-02-28T11:01:10;17.23;;;10.77;;
1507;SDS011;745;48.586;10.032;2023-02-28T11:05:43;16.37;;;11.23;;
1507;SDS011;745;48.586;10.032;2023-02-28T11:10:18;16.00;;;11.50;;
1507;SDS011;745;48.586;10.032;2023-02-28T11:14:51;13.80;;;10.23;;
1507;SDS011;745;48.586;10.032;2023-02-28T11:19:24;14.30;;;11.50;;
1507;SDS011;745;48.586;10.032;2023-02-28T11:24:04;13.77;;;11.13;;
1507;SDS011;745;48.586;10.032;2023-02-28T11:28:36;15.73;;;11.50;;
1507;SDS011;745;48.586;10.032;2023-02-28T11:33:22;14.00;;;10.07;;
1507;SDS011;745;48.586;10.032;2023-02-28T11:37:54;13.87;;;10.17;;
1507;SDS011;745;48.586;10.032;2023-02-28T11:47:36;14.27;;;9.70;;
1507;SDS011;745;48.586;10.032;2023-02-28T11:52:21;13.87;;;9.73;;
1507;SDS011;745;48.586;10.032;2023-02-28T11:56:55;14.53;;;10.70;;
1507;SDS011;745;48.586;10.032;2023-02-28T12:06:49;12.40;;;10.10;;
1507;SDS011;745;48.586;10.032;2023-02-28T12:11:39;14.83;;;10.30;;
1507;SDS011;745;48.586;10.032;2023-02-28T12:31:01;14.17;;;10.13;;
1507;SDS011;745;48.586;10.032;2023-02-28T12:35:54;13.37;;;10.07;;
1507;SDS011;745;48.586;10.032;2023-02-28T12:45:15;12.60;;;10.20;;
1507;SDS011;745;48.586;10.032;2023-02-28T12:49:49;14.70;;;10.70;;
1507;SDS011;745;48.586;10.032;2023-02-28T12:54:30;13.80;;;9.77;;
1507;SDS011;745;48.586;10.032;2023-02-28T12:59:10;12.97;;;10.20;;
1507;SDS011;745;48.586;10.032;2023-02-28T13:13:38;12.80;;;9.93;;
1507;SDS011;745;48.586;10.032;2023-02-28T13:18:27;14.00;;;10.20;;
1507;SDS011;745;48.586;10.032;2023-02-28T13:23:35;14.40;;;10.87;;
1507;SDS011;745;48.586;10.032;2023-02-28T13:28:12;11.67;;;9.67;;
1507;SDS011;745;48.586;10.032;2023-02-28T13:32:44;14.67;;;10.67;;
1507;SDS011;745;48.586;10.032;2023-02-28T13:41:48;12.83;;;10.50;;
1507;SDS011;745;48.586;10.032;2023-02-28T13:46:18;12.70;;;10.73;;
1507;SDS011;745;48.586;10.032;2023-02-28T13:50:48;11.63;;;9.70;;
1507;SDS011;745;48.586;10.032;2023-02-28T13:55:27;12.97;;;9.63;;
1507;SDS011;745;48.586;10.032;2023-02-28T14:13:56;10.17;;;8.30;;
1507;SDS011;745;48.586;10.032;2023-02-28T14:18:35;13.20;;;10.00;;
1507;SDS011;745;48.586;10.032;2023-02-28T14:23:19;11.77;;;9.30;;
1507;SDS011;745;48.586;10.032;2023-02-28T14:37:05;11.87;;;9.53;;
1507;SDS011;745;48.586;10.032;2023-02-28T14:41:38;14.80;;;9.20;;
1507;SDS011;745;48.586;10.032;2023-02-28T14:46:10;14.47;;;9.33;;
1507;SDS011;745;48.586;10.032;2023-02-28T14:50:42;13.07;;;8.50;;
1507;SDS011;745;48.586;10.032;2023-02-28T14:55:24;11.20;;;9.60;;
1507;SDS011;745;48.586;10.032;2023-02-28T15:00:04;9.50;;;8.00;;
1507;SDS011;745;48.586;10.032;2023-02-28T15:04:42;12.50;;;9.70;;
1507;SDS011;745;48.586;10.032;2023-02-28T15:09:17;11.80;;;8.50;;
1507;SDS011;745;48.586;10.032;2023-02-28T15:13:49;14.73;;;10.10;;
1507;SDS011;745;48.586;10.032;2023-02-28T15:22:52;12.70;;;9.60;;
1507;SDS011;745;48.586;10.032;2023-02-28T15:27:26;10.60;;;9.17;;
1507;SDS011;745;48.586;10.032;2023-02-28T15:32:03;10.53;;;8.73;;
1507;SDS011;745;48.586;10.032;2023-02-28T15:36:35;10.20;;;8.70;;
1507;SDS011;745;48.586;10.032;2023-02-28T15:41:20;11.07;;;8.57;;
1507;SDS011;745;48.586;10.032;2023-02-28T15:45:52;9.87;;;8.40;;
1507;SDS011;745;48.586;10.032;2023-02-28T15:50:27;10.07;;;8.40;;
1507;SDS011;745;48.586;10.032;2023-02-28T15:54:57;13.60;;;9.33;;
1507;SDS011;745;48.586;10.032;2023-02-28T15:59:28;10.97;;;8.50;;
1507;SDS011;745;48.586;10.032;2023-02-28T16:04:04;9.37;;;7.90;;
1507;SDS011;745;48.586;10.032;2023-02-28T16:08:46;10.47;;;8.33;;
1507;SDS011;745;48.586;10.032;2023-02-28T16:13:19;11.20;;;8.60;;
1507;SDS011;745;48.586;10.032;2023-02-28T16:17:49;13.57;;;8.90;;
1507;SDS011;745;48.586;10.032;2023-02-28T16:22:20;12.40;;;8.37;;
1507;SDS011;745;48.586;10.032;2023-02-28T16:26:51;12.73;;;8.87;;
1507;SDS011;745;48.586;10.032;2023-02-28T16:31:23;10.97;;;8.13;;
1507;SDS011;745;48.586;10.032;2023-02-28T16:35:53;12.73;;;9.23;;
1507;SDS011;745;48.586;10.032;2023-02-28T16:40:24;13.40;;;10.07;;
1507;SDS011;745;48.586;10.032;2023-02-28T16:44:56;10.63;;;8.80;;
1507;SDS011;745;48.586;10.032;2023-02-28T16:49:26;15.43;;;9.93;;
1507;SDS011;745;48.586;10.032;2023-02-28T16:53:57;13.13;;;9.07;;
1507;SDS011;745;48.586;10.032;2023-02-28T16:58:27;12.07;;;8.23;;
1507;SDS011;745;48.586;10.032;2023-02-28T17:02:57;12.47;;;9.27;;
1507;SDS011;745;48.586;10.032;2023-02-28T17:07:32;15.40;;;10.60;;
1507;SDS011;745;48.586;10.032;2023-02-28T17:12:02;14.57;;;9.23;;
1507;SDS011;745;48.586;10.032;2023-02-28T17:16:33;20.57;;;10.80;;
1507;SDS011;745;48.586;10.032;2023-02-28T17:21:09;13.20;;;8.67;;
1507;SDS011;745;48.586;10.032;2023-02-28T17:25:43;12.60;;;9.83;;
1507;SDS011;745;48.586;10.032;2023-02-28T17:30:24;11.50;;;8.67;;
1507;SDS011;745;48.586;10.032;2023-02-28T17:34:57;15.97;;;9.60;;
1507;SDS011;745;48.586;10.032;2023-02-28T17:39:27;13.50;;;8.50;;
1507;SDS011;745;48.586;10.032;2023-02-28T17:43:57;12.13;;;8.20;;
1507;SDS011;745;48.586;10.032;2023-02-28T17:48:28;10.63;;;7.50;;
1507;SDS011;745;48.586;10.032;2023-02-28T17:52:58;9.53;;;7.40;;
1507;SDS011;745;48.586;10.032;2023-02-28T17:57:29;12.00;;;7.77;;
1507;SDS011;745;48.586;10.032;2023-02-28T18:02:00;10.23;;;8.37;;
1507;SDS011;745;48.586;10.032;2023-02-28T18:06:33;11.70;;;8.33;;
1507;SDS011;745;48.586;10.032;2023-02-28T18:11:16;12.30;;;8.40;;
1507;SDS011;745;48.586;10.032;2023-02-28T18:15:48;11.47;;;7.80;;
1507;SDS011;745;48.586;10.032;2023-02-28T18:20:19;15.60;;;8.03;;
1507;SDS011;745;48.586;10.032;2023-02-28T18:24:50;13.57;;;10.03;;
1507;SDS011;745;48.586;10.032;2023-02-28T18:29:21;17.03;;;11.30;;
1507;SDS011;745;48.586;10.032;2023-02-28T18:33:53;16.43;;;9.67;;
1507;SDS011;745;48.586;10.032;2023-02-28T18:38:24;16.33;;;10.13;;
1507;SDS011;745;48.586;10.032;2023-02-28T18:42:54;14.70;;;10.47;;
1507;SDS011;745;48.586;10.032;2023-02-28T18:47:24;13.77;;;9.47;;
1507;SDS011;745;48.586;10.032;2023-02-28T18:51:55;14.23;;;9.80;;
1507;SDS011;745;48.586;10.032;2023-02-28T18:56:25;17.80;;;11.30;;
1507;SDS011;745;48.586;10.032;2023-02-28T19:00:56;16.93;;;11.83;;
1507;SDS011;745;48.586;10.032;2023-02-28T19:05:26;16.23;;;11.80;;
1507;SDS011;745;48.586;10.032;2023-02-28T19:10:00;15.57;;;12.27;;
1507;SDS011;745;48.586;10.032;2023-02-28T19:14:31;19.73;;;12.20;;
1507;SDS011;745;48.586;10.032;2023-02-28T19:19:01;18.80;;;12.43;;
1507;SDS011;745;48.586;10.032;2023-02-28T19:23:32;15.40;;;10.33;;
1507;SDS011;745;48.586;10.032;2023-02-28T19:28:02;21.00;;;14.43;;
1507;SDS011;745;48.586;10.032;2023-02-28T19:32:33;19.53;;;11.80;;
1507;SDS011;745;48.586;10.032;2023-02-28T19:37:03;13.07;;;9.83;;
1507;SDS011;745;48.586;10.032;2023-02-28T19:41:34;16.20;;;11.10;;
1507;SDS011;745;48.586;10.032;2023-02-28T19:46:05;16.37;;;11.80;;
1507;SDS011;745;48.586;10.032;2023-02-28T19:50:36;18.33;;;11.17;;
1507;SDS011;745;48.586;10.032;2023-02-28T19:55:06;21.13;;;14.53;;
1507;SDS011;745;48.586;10.032;2023-02-28T19:59:37;20.60;;;12.23;;
1507;SDS011;745;48.586;10.032;2023-02-28T20:04:08;17.90;;;11.30;;
1507;SDS011;745;48.586;10.032;2023-02-28T20:08:39;17.50;;;12.00;;
1507;SDS011;745;48.586;10.032;2023-02-28T20:13:10;20.60;;;11.53;;
1507;SDS011;745;48.586;10.032;2023-02-28T20:17:40;21.03;;;12.83;;
1507;SDS011;745;48.586;10.032;2023-02-28T20:22:11;21.03;;;12.00;;
1507;SDS011;745;48.586;10.032;2023-02-28T20:26:42;17.10;;;11.27;;
1507;SDS011;745;48.586;10.032;2023-02-28T20:31:13;13.33;;;10.20;;
1507;SDS011;745;48.586;10.032;2023-02-28T20:35:45;15.10;;;10.47;;
1507;SDS011;745;48.586;10.032;2023-02-28T20:40:17;17.93;;;12.03;;
1507;SDS011;745;48.586;10.032;2023-02-28T20:44:47;18.50;;;11.70;;
1507;SDS011;745;48.586;10.032;2023-02-28T20:49:18;19.33;;;12.47;;
1507;SDS011;745;48.586;10.032;2023-02-28T20:53:48;19.13;;;12.27;;
1507;SDS011;745;48.586;10.032;2023-02-28T20:58:18;19.10;;;12.30;;
1507;SDS011;745;48.586;10.032;2023-02-28T21:02:49;20.80;;;13.30;;
1507;SDS011;745;48.586;10.032;2023-02-28T21:07:19;25.83;;;13.93;;
1507;SDS011;745;48.586;10.032;2023-02-28T21:11:52;18.87;;;12.40;;
1507;SDS011;745;48.586;10.032;2023-02-28T21:16:23;18.00;;;11.83;;
1507;SDS011;745;48.586;10.032;2023-02-28T21:20:59;20.23;;;13.13;;
1507;SDS011;745;48.586;10.032;2023-02-28T21:25:39;18.43;;;11.20;;
1507;SDS011;745;48.586;10.032;2023-02-28T21:30:10;21.90;;;12.80;;
1507;SDS011;745;48.586;10.032;2023-02-28T21:34:41;22.63;;;12.33;;
1507;SDS011;745;48.586;10.032;2023-02-28T21:39:13;20.87;;;13.03;;
1507;SDS011;745;48.586;10.032;2023-02-28T21:43:45;19.17;;;12.13;;
1507;SDS011;745;48.586;10.032;2023-02-28T21:48:16;20.03;;;13.13;;
1507;SDS011;745;48.586;10.032;2023-02-28T21:52:46;19.13;;;12.20;;
1507;SDS011;745;48.586;10.032;2023-02-28T21:57:17;22.80;;;13.00;;
1507;SDS011;745;48.586;10.032;2023-02-28T22:01:48;23.73;;;13.83;;
1507;SDS011;745;48.586;10.032;2023-02-28T22:06:25;26.50;;;14.87;;
1507;SDS011;745;48.586;10.032;2023-02-28T22:11:00;21.73;;;12.50;;
1507;SDS011;745;48.586;10.032;2023-02-28T22:15:35;20.77;;;13.00;;
1507;SDS011;745;48.586;10.032;2023-02-28T22:20:07;20.97;;;13.90;;
1507;SDS011;745;48.586;10.032;2023-02-28T22:24:38;23.73;;;14.30;;
1507;SDS011;745;48.586;10.032;2023-02-28T22:29:09;24.80;;;14.63;;
1507;SDS011;745;48.586;10.032;2023-02-28T22:33:39;26.23;;;15.73;;
1507;SDS011;745;48.586;10.032;2023-02-28T22:38:11;26.63;;;14.93;;
1507;SDS011;745;48.586;10.032;2023-02-28T22:42:42;25.90;;;15.37;;
1507;SDS011;745;48.586;10.032;2023-02-28T22:47:12;22.93;;;14.77;;
1507;SDS011;745;48.586;10.032;2023-02-28T22:51:42;25.10;;;15.63;;
1507;SDS011;745;48.586;10.032;2023-02-28T22:56:13;26.77;;;16.43;;
1507;SDS011;745;48.586;10.032;2023-02-28T23:00:44;27.60;;;16.30;;
1507;SDS011;745;48.586;10.032;2023-02-28T23:05:15;23.47;;;15.80;;
1507;SDS011;745;48.586;10.032;2023-02-28T23:09:45;26.83;;;16.83;;
1507;SDS011;745;48.586;10.032;2023-02-28T23:14:19;25.93;;;16.20;;
1507;SDS011;745;48.586;10.032;2023-02-28T23:18:50;24.93;;;15.57;;
1507;SDS011;745;48.586;10.032;2023-02-28T23:23:21;25.03;;;15.47;;
1507;SDS011;745;48.586;10.032;2023-02-28T23:27:51;32.00;;;16.17;;
1507;SDS011;745;48.586;10.032;2023-02-28T23:32:22;27.00;;;14.80;;
1507;SDS011;745;48.586;10.032;2023-02-28T23:36:53;29.27;;;16.93;;
1507;SDS011;745;48.586;10.032;2023-02-28T23:41:23;29.13;;;17.03;;
1507;SDS011;745;48.586;10.032;2023-02-28T23:45:55;25.27;;;17.10;;
1507;SDS011;745;48.586;10.032;2023-02-28T23:50:26;30.53;;;15.80;;
1507;SDS011;745;48.586;10.032;2023-02-28T23:54:57;29.90;;;17.13;;
1507;SDS011;745;48.586;10.032;2023-02-28T23:59:29;28.03;;;17.53;;
